Time;durP1;ratioP1;P1;durP2;ratioP2;P2;SDS_P1;SDS_P2;PMS_P1;PMS_P2;Temp;Humidity;BMP_temperature;BMP_pressure;BME280_temperature;BME280_humidity;BME280_pressure;Samples;Min_cycle;Max_cycle;Signal;HPM_P1;HPM_P2
2022/08/11 00:00:49;;;;;;;2.90;1.20;;;;;;;17.81;65.04;101235.66;5060067;28;20083;-81
2022/08/11 00:03:17;;;;;;;1.92;1.20;;;;;;;17.81;64.92;101232.97;5063903;28;20029;-79
2022/08/11 00:05:50;;;;;;;3.13;1.60;;;;;;;17.79;64.69;101232.34;5048151;28;20033;-78
2022/08/11 00:08:29;;;;;;;6.07;1.90;;;;;;;17.78;64.65;101242.19;5053323;28;20067;-79
2022/08/11 00:11:02;;;;;;;4.13;1.38;;;;;;;17.84;64.38;101235.31;5063071;28;20052;-81
2022/08/11 00:13:54;;;;;;;6.15;1.60;;;;;;;17.80;64.49;101234.84;5066936;28;20115;-78
2022/08/11 00:16:23;;;;;;;6.85;1.33;;;;;;;17.70;64.65;101237.72;5061888;28;20119;-80
2022/08/11 00:18:52;;;;;;;1.92;1.40;;;;;;;17.59;64.63;101244.28;5051732;28;20040;-79
2022/08/11 00:21:24;;;;;;;4.15;1.23;;;;;;;17.41;65.28;101231.09;5047690;28;20123;-80
2022/08/11 00:23:57;;;;;;;1.42;1.30;;;;;;;17.25;65.72;101237.31;5049611;28;20044;-80
2022/08/11 00:26:24;;;;;;;3.08;1.70;;;;;;;17.21;65.94;101227.97;5051280;28;20033;-80
2022/08/11 00:28:51;;;;;;;4.28;1.30;;;;;;;17.23;65.66;101234.00;5052925;28;20091;-80
2022/08/11 00:31:34;;;;;;;3.80;1.38;;;;;;;17.22;65.67;101230.47;5067304;28;20039;-81
2022/08/11 00:34:03;;;;;;;3.22;1.30;;;;;;;17.27;65.58;101232.63;5063357;28;20029;-78
2022/08/11 00:36:44;;;;;;;2.58;1.52;;;;;;;17.32;65.43;101235.63;5085020;28;20040;-80
2022/08/11 00:39:12;;;;;;;3.25;1.58;;;;;;;17.34;65.40;101236.28;5077923;28;20032;-80
2022/08/11 00:42:01;;;;;;;1.92;1.48;;;;;;;17.31;65.66;101233.13;5072735;28;20036;-80
2022/08/11 00:44:48;;;;;;;3.67;1.20;;;;;;;17.31;65.64;101231.28;5049405;28;20038;-81
2022/08/11 00:47:26;;;;;;;3.60;1.02;;;;;;;17.25;65.74;101236.50;5056587;28;20040;-81
2022/08/11 00:50:32;;;;;;;4.70;1.73;;;;;;;17.16;65.96;101241.00;5053961;28;20051;-81
2022/08/11 00:53:09;;;;;;;3.57;1.27;;;;;;;17.18;65.76;101228.31;5052293;28;20041;-80
2022/08/11 00:56:11;;;;;;;7.40;1.40;;;;;;;17.17;65.63;101232.81;5071445;28;20032;-79
2022/08/11 00:58:49;;;;;;;5.22;1.48;;;;;;;17.16;65.67;101235.66;5048775;28;20040;-80
2022/08/11 01:01:15;;;;;;;2.55;1.40;;;;;;;17.09;65.40;101230.97;5059213;28;20460;-80
2022/08/11 01:03:53;;;;;;;2.13;1.20;;;;;;;17.04;65.63;101227.13;5056375;28;20127;-78
2022/08/11 01:06:24;;;;;;;5.85;1.40;;;;;;;16.91;65.63;101233.81;5061322;28;20120;-81
2022/08/11 01:09:02;;;;;;;1.55;1.25;;;;;;;16.78;66.09;101234.31;5038790;28;20041;-81
2022/08/11 01:11:52;;;;;;;3.85;1.45;;;;;;;16.66;66.02;101235.63;5051753;28;20064;-82
2022/08/11 01:14:33;;;;;;;2.75;1.70;;;;;;;16.56;66.43;101235.78;5048309;28;20791;-81
2022/08/11 01:17:36;;;;;;;4.32;1.63;;;;;;;16.54;66.89;101225.28;5035687;28;20534;-80
2022/08/11 01:20:17;;;;;;;5.13;1.35;;;;;;;16.54;66.94;101225.28;5082529;28;20517;-79
2022/08/11 01:22:58;;;;;;;6.93;1.38;;;;;;;16.47;66.76;101233.09;5056639;28;20502;-80
2022/08/11 01:26:00;;;;;;;3.80;1.30;;;;;;;16.44;67.00;101233.44;5033770;28;20040;-79
2022/08/11 01:28:53;;;;;;;1.67;1.15;;;;;;;16.40;67.08;101225.91;5063937;28;20032;-80
2022/08/11 01:31:36;;;;;;;5.35;1.50;;;;;;;16.42;66.90;101232.75;5052034;28;20033;-81
2022/08/11 01:34:40;;;;;;;6.25;1.73;;;;;;;16.48;66.64;101232.09;5033538;28;20041;-80
2022/08/11 01:37:21;;;;;;;2.97;1.63;;;;;;;16.49;66.59;101224.94;5035706;28;20434;-80
2022/08/11 01:40:24;;;;;;;7.65;1.45;;;;;;;16.48;66.63;101226.75;5049514;28;20048;-80
2022/08/11 01:46:15;;;;;;;3.92;1.40;;;;;;;16.41;66.68;101225.75;5059747;28;20071;-81
2022/08/11 01:48:47;;;;;;;1.58;1.35;;;;;;;16.38;66.89;101236.75;5041312;28;20037;-78
2022/08/11 01:51:53;;;;;;;3.53;1.25;;;;;;;16.27;67.18;101240.56;5004104;28;20037;-79
2022/08/11 01:54:45;;;;;;;2.80;1.53;;;;;;;16.22;66.87;101251.72;5049172;28;20477;-82
2022/08/11 01:57:32;;;;;;;3.50;1.35;;;;;;;16.20;66.97;101248.38;5067926;28;20032;-82
2022/08/11 02:00:19;;;;;;;2.92;1.83;;;;;;;16.18;66.98;101244.22;5061251;28;20044;-80
2022/08/11 02:02:52;;;;;;;2.03;1.40;;;;;;;16.11;66.82;101238.69;5053315;28;20503;-79
2022/08/11 02:05:43;;;;;;;7.43;1.45;;;;;;;15.95;66.86;101234.09;5049055;28;20043;-78
2022/08/11 02:08:21;;;;;;;2.28;1.63;;;;;;;15.86;66.78;101238.56;5080798;28;20500;-80
2022/08/11 02:13:56;;;;;;;2.97;1.38;;;;;;;15.71;67.09;101248.97;5069677;28;20060;-79
2022/08/11 02:16:47;;;;;;;2.20;1.50;;;;;;;15.50;67.26;101247.50;5052751;28;20093;-79
2022/08/11 02:25:10;;;;;;;10.77;1.38;;;;;;;15.04;68.63;101237.03;5069630;28;20098;-79
2022/08/11 02:27:44;;;;;;;4.60;1.60;;;;;;;14.99;68.66;101233.03;5064265;28;20170;-82
2022/08/11 02:30:16;;;;;;;2.15;1.15;;;;;;;15.02;69.19;101226.53;5025732;28;20028;-81
2022/08/11 02:35:46;;;;;;;18.90;1.30;;;;;;;15.06;69.19;101232.41;5078892;28;20040;-80
2022/08/11 02:38:42;;;;;;;2.25;1.50;;;;;;;15.06;69.19;101237.72;5047672;28;20090;-80
2022/08/11 02:44:13;;;;;;;2.42;1.20;;;;;;;15.03;69.22;101235.38;5055093;28;20029;-80
2022/08/11 02:47:06;;;;;;;3.22;1.65;;;;;;;15.09;69.16;101235.59;5069652;28;20036;-80
2022/08/11 02:49:53;;;;;;;1.98;1.25;;;;;;;15.13;68.85;101238.78;5048189;28;20032;-80
2022/08/11 02:52:18;;;;;;;;;;;;;;;15.07;69.48;101236.72;5067600;28;20036;-79
2022/08/11 02:55:02;;;;;;;6.03;1.97;;;;;;;15.16;68.77;101234.97;5066774;28;19924;-81
2022/08/11 02:57:52;;;;;;;5.45;2.25;;;;;;;15.22;68.73;101232.53;5063064;28;20505;-78
2022/08/11 03:00:19;;;;;;;2.72;1.60;;;;;;;15.23;68.68;101234.19;5067439;28;20404;-80
2022/08/11 03:02:54;;;;;;;7.80;2.35;;;;;;;15.23;68.71;101233.34;5027522;28;20031;-81
2022/08/11 03:05:33;;;;;;;2.95;1.67;;;;;;;15.19;68.94;101235.50;5068291;28;20040;-80
2022/08/11 03:08:12;;;;;;;2.72;1.77;;;;;;;15.13;69.06;101236.94;5060847;28;20388;-81
2022/08/11 03:16:43;;;;;;;4.07;1.80;;;;;;;15.09;69.26;101240.94;5059811;28;20039;-80
2022/08/11 03:16:51;;;;;;;4.30;2.00;;;;;;;15.11;69.27;101230.13;5048033;28;20062;-80
2022/08/11 03:20:02;;;;;;;7.93;2.20;;;;;;;15.08;69.41;101225.09;5047576;28;20040;-81
2022/08/11 03:22:54;;;;;;;2.65;1.60;;;;;;;15.03;69.55;101214.94;5053565;28;20445;-80
2022/08/11 03:25:58;;;;;;;5.78;1.42;;;;;;;14.93;69.27;101223.00;5050284;28;20037;-80
2022/08/11 03:28:30;;;;;;;6.43;1.70;;;;;;;14.84;69.66;101229.25;5041546;28;20040;-80
2022/08/11 03:31:14;;;;;;;3.28;1.45;;;;;;;14.74;69.47;101222.16;5060547;28;20054;-81
2022/08/11 03:34:08;;;;;;;1.70;1.38;;;;;;;14.73;69.58;101222.31;5066307;28;20041;-81
2022/08/11 03:36:55;;;;;;;1.65;1.10;;;;;;;14.80;69.59;101219.88;5056557;28;20393;-80
2022/08/11 03:39:39;;;;;;;3.58;1.58;;;;;;;14.73;69.46;101215.13;5054053;28;20037;-79
2022/08/11 03:42:35;;;;;;;4.35;1.45;;;;;;;14.67;69.71;101214.94;5050329;28;20028;-80
2022/08/11 03:45:20;;;;;;;4.15;1.48;;;;;;;14.52;69.88;101216.28;5046750;28;20035;-80
2022/08/11 03:48:05;;;;;;;10.82;1.88;;;;;;;14.46;69.85;101216.88;5048274;28;20493;-78
2022/08/11 03:51:00;;;;;;;2.00;1.27;;;;;;;14.36;70.04;101218.78;5060826;28;20047;-79
2022/08/11 03:54:08;;;;;;;2.00;1.23;;;;;;;14.29;70.07;101212.38;5043319;28;20060;-81
2022/08/11 03:56:59;;;;;;;2.70;1.45;;;;;;;14.33;69.93;101213.75;5068486;28;20574;-80
2022/08/11 03:59:46;;;;;;;4.32;1.70;;;;;;;14.38;69.90;101214.16;5068090;28;20044;-82
2022/08/11 04:02:15;;;;;;;2.38;1.20;;;;;;;14.48;69.74;101212.25;5043803;28;20037;-81
2022/08/11 04:05:18;;;;;;;3.90;1.40;;;;;;;14.51;69.44;101219.09;5067635;28;20048;-82
2022/08/11 04:08:35;;;;;;;6.47;1.67;;;;;;;14.57;69.42;101212.34;5033296;28;20055;-82
2022/08/11 04:11:44;;;;;;;2.67;1.70;;;;;;;14.56;69.54;101211.50;4999014;28;20049;-80
2022/08/11 04:17:47;;;;;;;5.07;1.95;;;;;;;14.51;69.86;101201.31;5064829;28;20076;-82
2022/08/11 04:20:22;;;;;;;1.42;1.30;;;;;;;14.53;69.89;101206.47;5059290;28;20040;-82
2022/08/11 04:23:23;;;;;;;2.75;1.98;;;;;;;14.44;70.06;101208.22;5062673;28;20048;-80
2022/08/11 04:26:07;;;;;;;3.70;1.38;;;;;;;14.36;70.27;101213.47;5034786;28;20454;-80
2022/08/11 04:28:39;;;;;;;4.07;1.38;;;;;;;14.27;70.47;101208.06;5057185;28;20447;-78
2022/08/11 04:31:19;;;;;;;4.22;1.50;;;;;;;14.22;70.37;101215.63;5048852;28;20037;-81
2022/08/11 04:34:05;;;;;;;1.85;1.25;;;;;;;14.17;70.24;101215.28;5072013;28;20044;-78
2022/08/11 04:39:37;;;;;;;1.95;1.27;;;;;;;14.07;70.24;101214.47;5068980;28;20138;-82
2022/08/11 04:45:48;;;;;;;1.98;1.35;;;;;;;13.93;70.46;101213.16;5067724;28;20053;-82
2022/08/11 05:07:37;;;;;;;2.22;1.13;;;;;;;13.60;70.72;101216.22;5087645;28;20537;-81
2022/08/11 05:10:27;;;;;;;3.05;1.25;;;;;;;13.61;70.93;101224.06;5053752;28;20040;-81
2022/08/11 05:12:52;;;;;;;4.32;1.40;;;;;;;13.60;70.99;101221.53;5030956;28;20036;-79
2022/08/11 05:36:00;;;;;;;7.47;1.60;;;;;;;13.57;72.33;101229.81;5040016;28;20048;-81
2022/08/11 05:58:05;;;;;;;2.80;1.90;;;;;;;13.81;72.83;101231.94;5064762;28;20039;-81
2022/08/11 06:00:40;;;;;;;1.83;1.63;;;;;;;13.88;72.83;101222.41;5054880;28;20040;-82
2022/08/11 06:03:09;;;;;;;5.20;1.90;;;;;;;13.95;73.01;101219.97;5033185;28;20262;-80
2022/08/11 06:05:37;;;;;;;5.53;1.70;;;;;;;14.02;73.06;101217.56;5046763;28;20028;-81
2022/08/11 06:08:08;;;;;;;3.80;1.83;;;;;;;14.05;73.44;101221.78;5069626;28;20051;-80
2022/08/11 06:10:37;;;;;;;5.20;1.90;;;;;;;14.05;73.52;101230.56;5059243;28;20047;-80
2022/08/11 06:13:05;;;;;;;3.65;1.70;;;;;;;13.98;74.04;101230.31;5054939;28;20102;-80
2022/08/11 06:15:33;;;;;;;3.97;1.70;;;;;;;13.88;74.27;101233.03;5052761;28;20025;-79
2022/08/11 06:18:01;;;;;;;2.38;1.83;;;;;;;13.94;74.47;101234.25;5052610;28;20067;-81
2022/08/11 06:20:36;;;;;;;2.65;1.52;;;;;;;14.02;74.42;101229.06;5043692;28;20125;-81
2022/08/11 06:23:04;;;;;;;3.97;1.52;;;;;;;14.16;74.51;101232.19;5055399;28;20397;-81
2022/08/11 06:25:33;;;;;;;3.55;2.20;;;;;;;14.27;74.36;101234.66;5045850;28;20037;-80
2022/08/11 06:28:02;;;;;;;3.05;1.30;;;;;;;14.37;74.39;101231.09;5065949;28;20474;-80
2022/08/11 06:30:40;;;;;;;2.45;1.70;;;;;;;14.45;74.31;101235.66;5059405;28;20036;-81
2022/08/11 06:33:30;;;;;;;4.43;2.65;;;;;;;14.57;74.38;101239.75;5044622;28;20029;-79
2022/08/11 06:36:06;;;;;;;2.92;1.92;;;;;;;14.62;74.42;101240.16;5045738;28;20035;-80
2022/08/11 06:38:56;;;;;;;15.55;1.83;;;;;;;14.67;74.57;101242.34;5053057;28;20036;-81
2022/08/11 06:41:32;;;;;;;5.05;1.88;;;;;;;14.73;74.44;101230.28;5068531;28;20028;-81
2022/08/11 06:44:13;;;;;;;2.42;1.80;;;;;;;14.74;74.65;101230.13;5064976;28;20040;-80
2022/08/11 06:46:46;;;;;;;5.80;1.83;;;;;;;14.82;74.91;101225.88;5067830;28;20032;-79
2022/08/11 06:52:03;;;;;;;5.53;1.88;;;;;;;14.92;75.18;101242.63;5064565;28;20060;-81
2022/08/11 06:54:32;;;;;;;6.03;1.92;;;;;;;14.91;75.65;101238.28;5063997;28;20434;-80
2022/08/11 07:02:53;;;;;;;5.57;2.17;;;;;;;14.78;77.43;101235.97;5062761;28;20063;-81
2022/08/11 07:05:26;;;;;;;2.00;1.80;;;;;;;14.78;78.05;101233.31;5049014;28;20036;-80
2022/08/11 07:16:51;;;;;;;1.60;1.50;;;;;;;15.26;77.99;101233.03;5077654;28;20035;-80
2022/08/11 07:30:46;;;;;;;4.95;1.67;;;;;;;16.94;76.17;101230.81;5065705;28;20408;-80
2022/08/11 07:33:18;;;;;;;5.18;1.60;;;;;;;17.45;75.31;101229.78;5035317;28;20449;-80
2022/08/11 07:35:54;;;;;;;3.53;1.80;;;;;;;17.88;74.39;101225.94;5034958;28;20033;-79
2022/08/11 07:38:41;;;;;;;4.55;1.52;;;;;;;18.14;73.81;101230.19;5031221;28;20032;-79
2022/08/11 07:41:15;;;;;;;4.25;2.00;;;;;;;18.50;73.04;101228.81;5066540;28;20081;-79
2022/08/11 07:43:43;;;;;;;7.75;2.55;;;;;;;18.86;72.13;101229.22;5064163;28;20046;-79
2022/08/11 07:54:29;;;;;;;5.95;2.00;;;;;;;19.40;69.40;101225.56;5066365;28;20070;-81
2022/08/11 07:56:55;;;;;;;2.80;1.73;;;;;;;19.51;68.48;101226.13;5053920;28;20033;-80
2022/08/11 08:18:40;;;;;;;4.20;1.65;;;;;;;19.83;65.31;101211.47;5043019;28;20074;-79
2022/08/11 08:21:14;;;;;;;4.68;1.60;;;;;;;19.78;65.32;101213.06;5048775;28;20068;-79
2022/08/11 08:23:43;;;;;;;4.28;1.60;;;;;;;19.73;65.37;101219.00;5060850;28;20032;-78
2022/08/11 08:31:47;;;;;;;3.80;1.75;;;;;;;19.56;66.29;101216.50;5068008;28;20040;-81
2022/08/11 08:34:14;;;;;;;10.82;1.98;;;;;;;19.61;66.47;101205.22;5073004;28;20405;-80
2022/08/11 08:36:48;;;;;;;3.83;2.45;;;;;;;19.66;67.04;101210.84;5046787;28;20032;-80
2022/08/11 08:39:15;;;;;;;3.60;1.67;;;;;;;19.60;67.26;101208.91;5067840;28;20538;-81
2022/08/11 08:41:42;;;;;;;3.95;1.30;;;;;;;19.64;67.21;101207.53;5067269;28;20036;-81
2022/08/11 08:44:11;;;;;;;2.90;1.35;;;;;;;19.70;67.33;101204.09;5067173;28;20041;-81
2022/08/11 08:46:43;;;;;;;2.58;1.45;;;;;;;19.84;66.98;101198.91;5046744;28;20038;-82
2022/08/11 08:49:15;;;;;;;2.15;1.52;;;;;;;20.03;66.75;101194.84;5043241;28;20060;-81
2022/08/11 08:51:43;;;;;;;4.03;1.13;;;;;;;20.22;66.32;101189.03;5046493;28;20039;-83
2022/08/11 08:54:17;;;;;;;1.42;0.93;;;;;;;20.40;65.19;101188.59;5065200;28;20439;-83
2022/08/11 08:56:44;;;;;;;2.15;0.90;;;;;;;20.60;64.58;101186.09;5068066;28;20551;-86
2022/08/11 08:59:13;;;;;;;5.05;1.08;;;;;;;20.75;63.65;101187.88;5052882;28;20071;-84
2022/08/11 09:01:50;;;;;;;5.43;1.00;;;;;;;20.87;62.86;101185.47;5073021;28;20032;-82
2022/08/11 09:04:19;;;;;;;2.08;1.15;;;;;;;20.94;62.21;101189.09;5046950;28;20397;-83
2022/08/11 09:06:46;;;;;;;1.45;0.80;;;;;;;20.99;61.86;101185.81;5053092;28;20060;-80
2022/08/11 09:09:13;;;;;;;1.45;0.77;;;;;;;21.04;61.85;101186.03;5031997;28;20041;-82
2022/08/11 09:11:52;;;;;;;3.13;0.70;;;;;;;21.19;61.21;101184.09;5055197;28;20040;-85
2022/08/11 09:14:23;;;;;;;1.20;0.70;;;;;;;21.36;61.31;101178.38;5068024;28;20086;-87
2022/08/11 09:16:51;;;;;;;2.42;0.88;;;;;;;21.55;61.21;101187.56;5056528;28;20028;-87
2022/08/11 09:19:20;;;;;;;1.23;0.68;;;;;;;21.71;60.72;101184.75;5070895;28;20071;-82
2022/08/11 09:27:21;;;;;;;4.65;0.70;;;;;;;21.98;59.29;101174.94;5067410;28;20085;-81
2022/08/11 09:29:48;;;;;;;1.65;0.70;;;;;;;22.02;59.22;101176.19;5058849;28;20040;-83
2022/08/11 09:32:18;;;;;;;1.88;0.90;;;;;;;22.04;58.91;101166.03;5049288;28;20036;-82
2022/08/11 09:34:43;;;;;;;1.58;0.50;;;;;;;22.04;58.42;101167.91;5064382;28;20048;-82
2022/08/11 09:45:26;;;;;;;2.38;0.60;;;;;;;22.52;56.77;101161.53;5056501;28;20028;-86
2022/08/11 09:47:53;;;;;;;1.52;0.80;;;;;;;22.67;55.92;101156.00;5056194;28;20480;-83
2022/08/11 09:50:19;;;;;;;1.02;0.63;;;;;;;22.80;54.94;101155.16;5049729;28;20032;-87
2022/08/11 09:52:47;;;;;;;1.25;0.60;;;;;;;22.92;54.41;101149.09;5054764;28;20127;-87
2022/08/11 09:55:14;;;;;;;2.20;0.77;;;;;;;23.04;54.01;101150.16;5050375;28;20047;-83
2022/08/11 10:00:33;;;;;;;2.10;0.98;;;;;;;23.25;53.03;101150.09;5050304;28;20040;-86
2022/08/11 10:03:01;;;;;;;2.83;0.77;;;;;;;23.33;52.47;101152.56;5040381;28;20037;-86
2022/08/11 10:08:16;;;;;;;;;;;;;;;23.45;51.49;101152.75;5048222;28;20025;-79
2022/08/11 10:10:44;;;;;;;4.47;0.75;;;;;;;23.71;51.09;101153.69;5068221;28;19919;-79
2022/08/11 10:13:20;;;;;;;5.13;1.33;;;;;;;23.83;50.40;101142.16;5045527;28;20055;-83
2022/08/11 10:15:47;;;;;;;0.98;0.70;;;;;;;23.83;50.13;101150.28;5053764;28;20407;-83
2022/08/11 10:21:13;;;;;;;3.72;0.80;;;;;;;23.79;50.27;101142.59;5062609;28;20049;-77
2022/08/11 10:34:45;;;;;;;;;;;;;;;23.93;49.66;101137.16;5085181;28;20040;-78
2022/08/11 10:37:11;;;;;;;2.67;0.50;;;;;;;24.22;49.65;101134.06;5037105;28;19913;-79
2022/08/11 10:39:39;;;;;;;7.32;0.85;;;;;;;24.45;48.96;101128.06;5049219;28;20498;-83
2022/08/11 10:44:53;;;;;;;2.75;0.70;;;;;;;24.73;48.36;101129.50;5065524;28;20033;-81
2022/08/11 10:47:37;;;;;;;3.45;0.90;;;;;;;24.87;48.23;101127.47;5048204;28;20033;-86
2022/08/11 11:01:08;;;;;;;3.13;0.75;;;;;;;25.30;46.62;101106.00;5073703;28;20430;-83
2022/08/11 11:03:35;;;;;;;3.97;0.90;;;;;;;25.45;45.96;101107.50;5050769;28;20033;-85
2022/08/11 11:06:24;;;;;;;3.90;0.80;;;;;;;25.51;45.35;101114.69;5069208;28;20039;-82
2022/08/11 11:09:01;;;;;;;4.25;0.95;;;;;;;25.59;45.16;101108.97;5080117;28;20202;-81
2022/08/11 11:19:41;;;;;;;3.25;0.80;;;;;;;25.87;44.53;101104.03;5056237;28;20040;-83
2022/08/11 11:25:26;;;;;;;6.60;0.90;;;;;;;25.96;43.77;101102.63;5046942;28;20040;-78
2022/08/11 11:27:55;;;;;;;;;;;;;;;25.85;43.81;101098.84;5028464;28;20040;-81
2022/08/11 11:30:26;;;;;;;1.92;0.85;;;;;;;26.10;44.30;101105.13;5034900;28;19970;-81
2022/08/11 11:33:03;;;;;;;5.07;1.05;;;;;;;26.20;43.62;101101.88;5037186;28;20036;-79
2022/08/11 11:35:47;;;;;;;3.78;0.95;;;;;;;26.27;42.57;101105.28;5065859;28;20049;-82
2022/08/11 11:38:13;;;;;;;1.45;0.70;;;;;;;26.37;42.75;101102.03;5027566;28;20477;-84
2022/08/11 11:40:39;;;;;;;3.63;0.70;;;;;;;26.48;42.33;101093.06;5054059;28;20115;-81
2022/08/11 11:43:05;;;;;;;2.00;0.93;;;;;;;26.60;41.67;101090.34;5049097;28;20032;-84
2022/08/11 11:45:31;;;;;;;1.83;0.60;;;;;;;26.59;41.75;101091.41;5086650;28;20485;-83
2022/08/11 11:47:59;;;;;;;2.65;0.73;;;;;;;26.61;41.73;101091.97;5068888;28;20029;-83
2022/08/11 11:50:35;;;;;;;6.50;0.85;;;;;;;26.75;42.19;101091.75;5067258;28;20072;-82
2022/08/11 11:53:06;;;;;;;2.65;0.80;;;;;;;26.85;41.54;101096.59;5031816;28;20036;-82
2022/08/11 11:55:33;;;;;;;2.40;0.85;;;;;;;26.79;41.57;101097.53;5088262;28;20029;-82
2022/08/11 12:03:34;;;;;;;3.38;0.93;;;;;;;26.83;41.90;101088.69;5055513;28;20037;-81
2022/08/11 12:06:01;;;;;;;3.58;0.98;;;;;;;26.79;41.80;101089.41;5065974;28;20032;-82
2022/08/11 12:08:28;;;;;;;4.38;0.90;;;;;;;26.75;41.88;101091.75;5051771;28;20024;-80
2022/08/11 12:13:50;;;;;;;1.52;0.70;;;;;;;26.93;41.78;101096.19;5044626;28;20045;-82
2022/08/11 12:16:18;;;;;;;4.35;0.88;;;;;;;27.05;41.32;101093.50;5032647;28;20060;-84
2022/08/11 12:18:48;;;;;;;1.73;0.60;;;;;;;27.21;40.74;101086.50;5061846;28;20040;-79
2022/08/11 12:21:15;;;;;;;1.75;0.70;;;;;;;27.30;40.00;101078.78;5066207;28;20528;-79
2022/08/11 12:29:13;;;;;;;;;;;;;;;27.16;40.37;101072.81;5066442;28;20123;-82
2022/08/11 12:31:40;;;;;;;11.93;0.85;;;;;;;27.37;40.19;101078.66;5071031;28;19916;-82
2022/08/11 12:34:14;;;;;;;1.73;0.70;;;;;;;27.50;39.58;101078.34;5054052;28;20029;-80
2022/08/11 12:36:43;;;;;;;2.05;0.70;;;;;;;27.63;39.17;101070.97;5062168;28;20036;-79
2022/08/11 12:39:12;;;;;;;3.17;1.02;;;;;;;27.71;39.29;101075.22;5056634;28;20031;-78
2022/08/11 12:47:16;;;;;;;2.70;1.05;;;;;;;27.64;38.30;101074.50;5070255;28;20493;-80
2022/08/11 12:52:42;;;;;;;3.83;0.73;;;;;;;27.55;38.37;101072.19;5079149;28;20043;-79
2022/08/11 12:58:14;;;;;;;2.95;0.90;;;;;;;27.61;38.51;101073.94;5065277;28;20054;-81
2022/08/11 12:58:15;;;;;;;3.03;0.60;;;;;;;27.77;38.25;101070.69;5042584;28;20035;-80
2022/08/11 13:06:18;;;;;;;7.30;0.80;;;;;;;28.21;37.85;101051.00;5067937;28;20032;-79
2022/08/11 13:08:45;;;;;;;1.27;0.70;;;;;;;28.37;37.44;101052.09;5032742;28;20040;-81
2022/08/11 13:13:57;;;;;;;1.90;0.80;;;;;;;28.47;36.26;101043.25;5053104;28;20028;-81
2022/08/11 13:16:30;;;;;;;2.50;1.08;;;;;;;28.48;36.18;101040.28;5046435;28;20040;-79
2022/08/11 13:18:59;;;;;;;5.07;0.70;;;;;;;28.52;36.10;101032.47;5053364;28;20040;-81
2022/08/11 13:21:27;;;;;;;3.00;0.63;;;;;;;28.49;36.46;101038.41;5058577;28;20060;-79
2022/08/11 13:23:57;;;;;;;2.20;0.80;;;;;;;28.54;36.49;101033.00;5046606;28;20040;-82
2022/08/11 13:26:23;;;;;;;1.15;0.50;;;;;;;28.55;36.26;101029.22;5034460;28;20068;-82
2022/08/11 13:28:50;;;;;;;3.72;0.70;;;;;;;28.55;36.77;101022.97;5045138;28;20085;-82
2022/08/11 13:31:16;;;;;;;2.33;0.77;;;;;;;28.57;36.22;101023.53;5035496;28;20119;-80
2022/08/11 13:33:52;;;;;;;2.50;1.23;;;;;;;28.57;36.41;101018.09;5065565;28;20497;-80
2022/08/11 13:36:21;;;;;;;1.00;0.90;;;;;;;28.62;36.53;101023.59;5083299;28;20028;-82
2022/08/11 13:38:47;;;;;;;3.85;0.88;;;;;;;28.68;36.32;101021.78;5050879;28;20131;-80
2022/08/11 13:43:59;;;;;;;1.42;0.80;;;;;;;28.81;35.53;101015.94;5063552;28;20472;-81
2022/08/11 13:46:26;;;;;;;0.63;0.60;;;;;;;28.90;35.41;101019.03;5045692;28;20029;-79
2022/08/11 13:48:54;;;;;;;2.88;0.63;;;;;;;28.88;34.90;101023.06;5048886;28;20036;-81
2022/08/11 13:51:32;;;;;;;3.80;0.70;;;;;;;28.88;35.34;101018.47;5032968;28;20071;-79
2022/08/11 13:54:08;;;;;;;3.08;0.70;;;;;;;28.78;34.62;101016.44;5029469;28;20120;-78
2022/08/11 13:56:41;;;;;;;1.50;0.73;;;;;;;28.77;34.71;101009.38;5065814;28;20393;-78
2022/08/11 13:59:07;;;;;;;1.80;0.77;;;;;;;28.77;34.46;101011.25;5051421;28;20374;-78
2022/08/11 14:01:38;;;;;;;6.55;1.00;;;;;;;28.70;34.36;101006.03;5056614;28;20036;-81
2022/08/11 14:04:10;;;;;;;2.35;0.68;;;;;;;28.53;34.26;101004.19;5037997;28;20033;-81
2022/08/11 14:06:51;;;;;;;1.63;0.70;;;;;;;28.52;34.48;101001.72;5038137;28;20378;-81
2022/08/11 14:09:26;;;;;;;3.92;0.80;;;;;;;28.60;34.34;100998.56;5059056;28;20029;-79
2022/08/11 14:14:46;;;;;;;1.65;0.65;;;;;;;28.74;34.67;101001.72;5056742;28;20098;-78
2022/08/11 14:17:16;;;;;;;2.30;0.85;;;;;;;28.75;34.20;100999.81;5065405;28;20060;-78
2022/08/11 14:19:46;;;;;;;6.20;0.82;;;;;;;28.91;34.24;101009.78;5034983;28;20043;-77
2022/08/11 14:22:14;;;;;;;2.83;1.02;;;;;;;28.88;34.06;101004.88;5056956;28;20059;-80
2022/08/11 14:24:42;;;;;;;3.90;0.88;;;;;;;28.96;34.84;101001.72;5031646;28;20198;-79
2022/08/11 14:27:10;;;;;;;2.45;1.00;;;;;;;28.89;34.79;101005.69;5043477;28;20033;-80
2022/08/11 14:29:39;;;;;;;1.38;0.77;;;;;;;28.74;35.15;101007.16;5065180;28;20032;-77
2022/08/11 14:32:08;;;;;;;1.88;0.70;;;;;;;28.68;35.02;101002.72;5042848;28;20032;-80
2022/08/11 14:34:38;;;;;;;5.47;0.70;;;;;;;28.61;34.83;101000.19;5046696;28;20063;-83
2022/08/11 14:37:14;;;;;;;1.27;0.68;;;;;;;28.66;34.34;100994.00;5044695;28;20054;-81
2022/08/11 14:39:43;;;;;;;2.22;0.73;;;;;;;28.67;34.72;100993.75;5075202;28;20045;-82
2022/08/11 14:47:48;;;;;;;3.00;0.85;;;;;;;29.07;34.04;100996.38;5050771;28;20029;-80
2022/08/11 14:50:17;;;;;;;3.40;0.80;;;;;;;29.16;33.52;100994.84;5062836;28;20043;-83
2022/08/11 14:52:55;;;;;;;6.80;0.70;;;;;;;29.23;33.48;100983.75;5044366;28;20384;-82
2022/08/11 14:58:10;;;;;;;1.52;0.70;;;;;;;29.35;33.27;100975.44;5049036;28;20040;-79
2022/08/11 15:00:37;;;;;;;3.45;0.70;;;;;;;29.25;33.13;100976.16;5044972;28;20032;-79
2022/08/11 15:03:10;;;;;;;2.17;0.60;;;;;;;29.30;33.22;100976.22;5045817;28;20036;-79
2022/08/11 15:05:40;;;;;;;3.13;0.68;;;;;;;29.40;33.34;100972.75;5058326;28;20037;-79
2022/08/11 15:08:07;;;;;;;2.50;0.68;;;;;;;29.51;33.40;100979.13;5044273;28;20367;-80
2022/08/11 15:10:34;;;;;;;3.17;0.90;;;;;;;29.55;33.53;100971.22;5050296;28;20032;-79
2022/08/11 15:13:00;;;;;;;2.65;0.80;;;;;;;29.61;33.21;100964.78;5046839;28;20170;-78
2022/08/11 15:18:16;;;;;;;3.10;0.70;;;;;;;29.63;33.52;100967.22;5057639;28;20035;-82
2022/08/11 15:37:25;;;;;;;1.52;0.60;;;;;;;29.39;33.16;100962.09;5073079;28;20501;-79
2022/08/11 15:37:30;;;;;;;82.07;67.32;;;;;;;29.44;32.11;100954.81;5045666;28;20651;-79
2022/08/11 15:45:47;;;;;;;27.30;22.73;;;;;;;29.44;32.74;100946.66;5046846;28;20040;-79
2022/08/11 15:48:18;;;;;;;3.25;0.88;;;;;;;29.51;32.56;100951.88;5048876;28;20032;-82
2022/08/11 15:50:51;;;;;;;12.32;6.25;;;;;;;29.49;33.00;100950.50;5062883;28;20033;-82
2022/08/11 15:53:32;;;;;;;1.95;0.80;;;;;;;29.44;32.33;100946.66;5063463;28;20043;-82
2022/08/11 15:55:59;;;;;;;5.45;0.70;;;;;;;29.45;32.39;100944.72;5048983;28;20544;-82
2022/08/11 16:04:12;;;;;;;6.35;1.05;;;;;;;29.37;31.95;100942.50;5065742;28;20751;-79
2022/08/11 16:06:41;;;;;;;;;;;;;;;29.24;32.00;100938.31;5049441;28;20482;-80
2022/08/11 16:09:09;;;;;;;1.63;0.57;;;;;;;29.48;32.29;100938.75;5051040;28;20365;-79
2022/08/11 16:11:36;;;;;;;3.78;0.80;;;;;;;29.59;31.97;100939.72;5071071;28;20033;-77
2022/08/11 16:16:49;;;;;;;2.03;0.70;;;;;;;29.65;32.26;100927.78;5048530;28;20044;-78
2022/08/11 16:19:18;;;;;;;2.97;0.80;;;;;;;29.68;32.01;100940.03;5064435;28;20416;-79
2022/08/11 16:21:49;;;;;;;1.77;0.60;;;;;;;29.69;31.80;100939.78;5052996;28;20076;-78
2022/08/11 16:24:18;;;;;;;1.10;0.60;;;;;;;29.72;31.56;100932.97;5035562;28;20118;-78
2022/08/11 16:26:45;;;;;;;2.58;0.90;;;;;;;29.76;31.18;100930.56;5067595;28;20028;-78
2022/08/11 16:29:11;;;;;;;2.17;0.65;;;;;;;29.78;31.29;100928.41;5039135;28;20044;-78
2022/08/11 16:31:39;;;;;;;2.47;0.70;;;;;;;29.78;31.67;100926.50;5049124;28;20067;-77
2022/08/11 16:38:33;;;;;;;5.38;0.73;;;;;;;29.81;31.90;100920.53;5083626;28;20037;-79
2022/08/11 16:39:40;;;;;;;4.20;0.70;;;;;;;29.78;31.77;100921.06;5054055;28;20044;-77
2022/08/11 16:47:41;;;;;;;1.98;0.70;;;;;;;29.41;32.23;100914.50;5072274;28;20506;-77
2022/08/11 16:50:08;;;;;;;1.88;0.80;;;;;;;29.25;32.61;100918.16;5069584;28;20025;-77
2022/08/11 16:52:34;;;;;;;0.85;0.63;;;;;;;29.15;33.09;100916.16;5076100;28;20037;-78
2022/08/11 16:55:02;;;;;;;1.63;0.90;;;;;;;29.07;33.61;100912.84;5064200;28;20046;-80
2022/08/11 17:00:16;;;;;;;1.42;0.60;;;;;;;29.13;33.30;100910.19;5065511;28;20035;-80